Time;durP1;ratioP1;P1;durP2;ratioP2;P2;SDS_P1;SDS_P2;PMS_P1;PMS_P2;Temp;Humidity;BMP_temperature;BMP_pressure;BME280_temperature;BME280_humidity;BME280_pressure;Samples;Min_cycle;Max_cycle;Signal;HPM_P1;HPM_P2
2024/01/08 00:01:12;;;;;;;19.93;18.60;;;;;;;-3.10;100.00;103373.59;4995753;28;20529;-37
2024/01/08 00:03:40;;;;;;;19.43;18.33;;;;;;;-3.05;100.00;103365.66;4992279;28;20434;-36
2024/01/08 00:06:08;;;;;;;20.00;19.00;;;;;;;-3.07;100.00;103364.81;4994486;28;20849;-38
2024/01/08 00:08:36;;;;;;;18.97;17.93;;;;;;;-3.17;100.00;103366.88;4991506;28;20474;-36
2024/01/08 00:11:05;;;;;;;20.90;19.67;;;;;;;-3.20;100.00;103368.72;4991982;28;20439;-38
2024/01/08 00:13:33;;;;;;;19.20;18.30;;;;;;;-3.17;100.00;103366.03;4991518;28;20880;-36
2024/01/08 00:16:02;;;;;;;20.00;19.10;;;;;;;-3.30;100.00;103369.88;4992050;28;20446;-36
2024/01/08 00:18:30;;;;;;;19.20;17.70;;;;;;;-3.28;100.00;103381.09;4991805;28;20874;-36
2024/01/08 00:20:59;;;;;;;19.70;18.70;;;;;;;-3.25;100.00;103387.09;4991433;28;21153;-36
2024/01/08 00:23:28;;;;;;;20.07;19.03;;;;;;;-3.28;100.00;103375.88;4995019;28;20449;-36
2024/01/08 00:25:56;;;;;;;19.87;18.77;;;;;;;-3.28;100.00;103388.94;4995233;28;20509;-43
2024/01/08 00:28:25;;;;;;;19.33;18.23;;;;;;;-3.26;100.00;103395.00;4999151;28;20849;-38
2024/01/08 00:30:53;;;;;;;18.87;17.80;;;;;;;-3.26;100.00;103379.34;4999584;28;20911;-36
2024/01/08 00:33:22;;;;;;;19.30;18.40;;;;;;;-3.24;100.00;103395.78;4993825;28;20438;-36
2024/01/08 00:35:52;;;;;;;19.33;18.20;;;;;;;-3.21;100.00;103398.31;4995233;28;20448;-36
2024/01/08 00:38:20;;;;;;;18.97;17.93;;;;;;;-3.25;100.00;103391.47;4991383;28;20469;-36
2024/01/08 00:40:48;;;;;;;18.87;17.87;;;;;;;-3.27;100.00;103382.81;4992457;28;20484;-36
2024/01/08 00:43:16;;;;;;;19.87;18.13;;;;;;;-3.23;100.00;103394.91;4991860;28;20437;-37
2024/01/08 00:45:44;;;;;;;19.07;18.13;;;;;;;-3.21;100.00;103375.69;4992532;28;20426;-37
2024/01/08 00:48:12;;;;;;;19.33;18.13;;;;;;;-3.20;100.00;103400.91;4992142;28;20469;-36
2024/01/08 00:50:41;;;;;;;19.40;18.40;;;;;;;-3.14;100.00;103402.47;4989787;28;20449;-36
2024/01/08 00:53:09;;;;;;;19.50;18.53;;;;;;;-3.18;100.00;103378.22;4995057;28;20442;-36
2024/01/08 00:55:38;;;;;;;19.00;17.80;;;;;;;-3.16;100.00;103399.88;4993019;28;20905;-39
2024/01/08 00:58:06;;;;;;;18.33;17.43;;;;;;;-3.16;100.00;103404.25;4992374;28;21034;-36
2024/01/08 01:00:34;;;;;;;18.80;17.80;;;;;;;-3.15;100.00;103400.75;4988568;28;20488;-36
2024/01/08 01:03:01;;;;;;;18.60;17.60;;;;;;;-3.17;100.00;103406.03;4992783;28;20442;-37
2024/01/08 01:05:29;;;;;;;18.13;16.97;;;;;;;-3.17;100.00;103402.56;4993234;28;20438;-36
2024/01/08 01:07:59;;;;;;;19.13;17.50;;;;;;;-3.18;100.00;103419.97;4991340;28;20462;-36
2024/01/08 01:10:27;;;;;;;19.10;18.10;;;;;;;-3.21;100.00;103408.75;4992416;28;20996;-36
2024/01/08 01:12:54;;;;;;;17.60;16.80;;;;;;;-3.21;100.00;103401.78;4993857;28;20437;-36
2024/01/08 01:15:23;;;;;;;17.83;17.00;;;;;;;-3.14;100.00;103410.31;4991521;28;21216;-36
2024/01/08 01:17:51;;;;;;;18.00;17.20;;;;;;;-3.16;100.00;103399.88;4992789;28;20457;-37
2024/01/08 01:20:19;;;;;;;18.07;17.27;;;;;;;-3.16;100.00;103415.53;4993909;28;20454;-36
2024/01/08 01:22:47;;;;;;;18.27;17.30;;;;;;;-3.19;100.00;103410.41;4993992;28;20881;-37
2024/01/08 01:25:18;;;;;;;17.90;16.90;;;;;;;-3.17;100.00;103419.06;4991531;28;20517;-36
2024/01/08 01:27:46;;;;;;;17.67;16.57;;;;;;;-3.17;100.00;103410.38;4993539;28;20921;-36
2024/01/08 01:30:14;;;;;;;19.20;18.20;;;;;;;-3.15;100.00;103411.19;4989865;28;20442;-37
2024/01/08 01:32:42;;;;;;;18.13;17.03;;;;;;;-3.20;100.00;103406.13;4991665;28;21334;-36
2024/01/08 01:35:10;;;;;;;17.50;16.30;;;;;;;-3.18;100.00;103421.72;4990877;28;20445;-36
2024/01/08 01:37:41;;;;;;;17.50;16.60;;;;;;;-3.23;100.00;103414.03;4991357;28;20461;-36
2024/01/08 01:40:10;;;;;;;17.50;16.70;;;;;;;-3.22;100.00;103407.03;4990769;28;20434;-36
2024/01/08 01:42:40;;;;;;;18.07;17.00;;;;;;;-3.20;100.00;103420.91;4993889;28;20466;-36
2024/01/08 01:45:08;;;;;;;17.03;16.07;;;;;;;-3.15;100.00;103422.50;4990605;28;20930;-36
2024/01/08 01:47:37;;;;;;;16.70;16.10;;;;;;;-3.17;100.00;103418.22;4992503;28;20462;-36
2024/01/08 01:50:07;;;;;;;16.77;15.87;;;;;;;-3.17;100.00;103426.03;4993620;28;20926;-36
2024/01/08 01:52:36;;;;;;;17.20;16.50;;;;;;;-3.18;100.00;103400.84;4993925;28;20466;-36
2024/01/08 01:55:04;;;;;;;18.03;16.97;;;;;;;-3.20;100.00;103413.09;4993424;28;20438;-36
2024/01/08 01:57:33;;;;;;;17.70;16.87;;;;;;;-3.15;100.00;103408.56;4989650;28;21217;-39
2024/01/08 02:00:03;;;;;;;17.07;16.23;;;;;;;-3.13;100.00;103398.94;4993353;28;20437;-35
2024/01/08 02:02:32;;;;;;;17.63;16.70;;;;;;;-3.15;100.00;103448.59;4992797;28;20442;-40
2024/01/08 02:05:00;;;;;;;17.93;17.13;;;;;;;-3.10;100.00;103404.06;4993276;28;20434;-37
2024/01/08 02:07:29;;;;;;;17.87;16.77;;;;;;;-3.12;100.00;103398.06;4994149;28;20976;-36
2024/01/08 02:09:57;;;;;;;18.30;16.97;;;;;;;-3.12;100.00;103406.75;4996438;28;20548;-36
2024/01/08 02:12:26;;;;;;;16.80;15.80;;;;;;;-3.08;100.00;103415.34;4992362;28;20437;-39
2024/01/08 02:14:54;;;;;;;17.90;16.90;;;;;;;-3.01;100.00;103411.63;4995764;28;20441;-38
2024/01/08 02:17:24;;;;;;;17.63;16.73;;;;;;;-3.00;100.00;103413.34;4993084;28;20497;-36
2024/01/08 02:19:52;;;;;;;16.30;15.57;;;;;;;-3.02;100.00;103391.69;4992481;28;20849;-36
2024/01/08 02:22:19;;;;;;;17.80;16.83;;;;;;;-2.98;100.00;103420.25;4993023;28;20442;-36
2024/01/08 02:24:49;;;;;;;17.90;16.93;;;;;;;-2.94;100.00;103407.97;4995214;28;20528;-36
2024/01/08 02:27:17;;;;;;;17.60;16.60;;;;;;;-2.92;100.00;103403.53;4992591;28;20454;-37
2024/01/08 02:29:44;;;;;;;18.70;17.73;;;;;;;-2.87;100.00;103422.56;4994489;28;21040;-36
2024/01/08 02:32:13;;;;;;;18.00;16.80;;;;;;;-2.81;100.00;103423.22;4991922;28;20437;-43
2024/01/08 02:34:41;;;;;;;18.10;17.20;;;;;;;-2.78;100.00;103418.81;4996184;28;20802;-36
2024/01/08 02:37:09;;;;;;;16.87;15.87;;;;;;;-2.81;100.00;103409.31;4993171;28;20461;-36
2024/01/08 02:39:36;;;;;;;17.97;16.97;;;;;;;-2.70;100.00;103404.63;4994432;28;20464;-37
2024/01/08 02:42:06;;;;;;;17.23;16.33;;;;;;;-2.71;100.00;103395.06;4992982;28;20469;-36
2024/01/08 02:44:34;;;;;;;18.30;17.30;;;;;;;-2.62;100.00;103406.97;4993667;28;20936;-36
2024/01/08 02:47:02;;;;;;;18.60;17.40;;;;;;;-2.60;100.00;103405.19;4994251;28;20572;-36
2024/01/08 02:49:30;;;;;;;18.10;16.87;;;;;;;-2.51;100.00;103410.97;4989475;28;20485;-36
2024/01/08 02:51:58;;;;;;;17.47;16.67;;;;;;;-2.42;100.00;103415.06;4993532;28;20445;-36
2024/01/08 02:54:26;;;;;;;17.97;17.00;;;;;;;-2.43;100.00;103409.00;4992074;28;20479;-36
2024/01/08 02:56:54;;;;;;;18.73;17.67;;;;;;;-2.33;100.00;103402.56;4991639;28;20465;-36
2024/01/08 02:59:23;;;;;;;20.03;19.00;;;;;;;-2.23;100.00;103408.34;4992740;28;20462;-36
2024/01/08 03:01:50;;;;;;;18.77;17.63;;;;;;;-2.19;100.00;103415.19;4995249;28;20434;-36
2024/01/08 03:04:18;;;;;;;18.97;17.97;;;;;;;-2.17;100.00;103402.06;4991985;28;20442;-36
2024/01/08 03:06:46;;;;;;;18.33;17.50;;;;;;;-2.09;100.00;103413.97;5000601;28;20924;-37
2024/01/08 03:09:14;;;;;;;18.87;17.97;;;;;;;-2.04;100.00;103419.91;4990669;28;20524;-36
2024/01/08 03:11:42;;;;;;;20.13;19.03;;;;;;;-2.08;100.00;103396.53;4993821;28;20524;-36
2024/01/08 03:14:10;;;;;;;19.90;18.50;;;;;;;-2.02;100.00;103399.78;4989861;28;20469;-38
2024/01/08 03:16:39;;;;;;;18.50;17.70;;;;;;;-1.98;100.00;103406.66;4992928;28;20841;-36
2024/01/08 03:19:07;;;;;;;19.10;18.20;;;;;;;-1.90;100.00;103409.84;4994472;28;20458;-36
2024/01/08 03:21:35;;;;;;;18.57;17.40;;;;;;;-1.84;100.00;103409.66;4994452;28;20442;-36
2024/01/08 03:24:03;;;;;;;19.67;18.47;;;;;;;-1.75;100.00;103406.72;4990863;28;20492;-36
2024/01/08 03:26:31;;;;;;;19.30;18.20;;;;;;;-1.75;100.00;103404.09;4991775;28;20445;-36
2024/01/08 03:28:58;;;;;;;18.33;17.57;;;;;;;-1.65;100.00;103428.19;4991122;28;20915;-37
2024/01/08 03:31:26;;;;;;;18.80;18.00;;;;;;;-1.62;100.00;103424.59;4991069;28;20461;-36
2024/01/08 03:33:56;;;;;;;18.83;17.83;;;;;;;-1.66;100.00;103426.47;4984614;28;20477;-36
2024/01/08 03:36:24;;;;;;;19.50;18.50;;;;;;;-1.64;100.00;103419.41;4992140;28;20446;-36
2024/01/08 03:38:52;;;;;;;19.23;18.33;;;;;;;-1.61;100.00;103419.31;4991412;28;20489;-40
2024/01/08 03:41:19;;;;;;;19.27;18.33;;;;;;;-1.59;100.00;103424.50;4994435;28;20520;-36
2024/01/08 03:43:47;;;;;;;19.53;18.43;;;;;;;-1.57;100.00;103430.53;4991315;28;20809;-36
2024/01/08 03:46:16;;;;;;;19.33;18.43;;;;;;;-1.57;100.00;103418.31;4991044;28;20442;-36
2024/01/08 03:48:44;;;;;;;19.63;18.73;;;;;;;-1.57;100.00;103425.28;4993642;28;20501;-37
2024/01/08 03:51:14;;;;;;;19.87;18.97;;;;;;;-1.58;100.00;103428.84;4996663;28;20821;-36
2024/01/08 03:53:42;;;;;;;20.17;19.07;;;;;;;-1.58;100.00;103434.91;4991379;28;20462;-36
2024/01/08 03:56:10;;;;;;;20.40;19.50;;;;;;;-1.56;100.00;103435.72;4991781;28;20521;-36
2024/01/08 03:58:38;;;;;;;21.03;19.47;;;;;;;-1.57;100.00;103426.16;4989616;28;20826;-36
2024/01/08 04:01:06;;;;;;;19.97;19.00;;;;;;;-1.56;100.00;103440.97;4991206;28;20430;-37
2024/01/08 04:03:33;;;;;;;19.73;18.63;;;;;;;-1.59;100.00;103448.91;4991804;28;20442;-37
2024/01/08 04:06:01;;;;;;;20.23;19.27;;;;;;;-1.57;100.00;103448.84;4990217;28;20488;-37
2024/01/08 04:08:30;;;;;;;20.43;19.53;;;;;;;-1.59;100.00;103448.06;4992467;28;20480;-38
2024/01/08 04:10:58;;;;;;;20.53;19.63;;;;;;;-1.55;100.00;103463.59;4980826;28;20481;-37
2024/01/08 04:13:26;;;;;;;19.63;18.77;;;;;;;-1.56;100.00;103468.88;4992792;28;20476;-37
2024/01/08 04:15:54;;;;;;;20.53;19.43;;;;;;;-1.55;100.00;103463.59;4989814;28;20436;-37
2024/01/08 04:18:22;;;;;;;20.73;19.67;;;;;;;-1.54;100.00;103475.75;4988649;28;20505;-37
2024/01/08 04:20:50;;;;;;;20.17;19.27;;;;;;;-1.52;100.00;103479.19;4992560;28;20449;-37
2024/01/08 04:23:17;;;;;;;20.10;19.03;;;;;;;-1.50;100.00;103473.91;4988485;28;20442;-38
2024/01/08 04:25:47;;;;;;;19.93;19.03;;;;;;;-1.44;100.00;103452.75;4990941;28;20926;-42
2024/01/08 04:28:14;;;;;;;20.03;19.13;;;;;;;-1.49;100.00;103463.38;4992126;28;20521;-38
2024/01/08 04:30:43;;;;;;;18.90;17.77;;;;;;;-1.51;100.00;103467.81;4990406;28;20473;-36
2024/01/08 04:33:11;;;;;;;20.17;19.30;;;;;;;-1.56;100.00;103466.25;4990767;28;20438;-37
2024/01/08 04:35:39;;;;;;;20.37;19.10;;;;;;;-1.53;100.00;103469.63;4989575;28;20463;-37
2024/01/08 04:38:07;;;;;;;19.30;18.30;;;;;;;-1.51;100.00;103473.03;4989161;28;20462;-36
2024/01/08 04:40:35;;;;;;;19.80;19.00;;;;;;;-1.48;100.00;103491.25;4991620;28;20434;-37
2024/01/08 04:43:04;;;;;;;19.20;18.20;;;;;;;-1.46;100.00;103475.50;4989805;28;20992;-37
2024/01/08 04:45:33;;;;;;;18.70;17.60;;;;;;;-1.38;100.00;103486.56;4990137;28;20448;-36
2024/01/08 04:48:00;;;;;;;19.47;18.50;;;;;;;-1.35;100.00;103478.63;4981949;28;20497;-38
2024/01/08 04:50:28;;;;;;;19.43;18.23;;;;;;;-1.31;100.00;103475.81;4997735;28;20501;-38
2024/01/08 04:52:57;;;;;;;18.10;17.30;;;;;;;-1.27;100.00;103493.13;4992334;28;20434;-38
2024/01/08 04:55:25;;;;;;;18.00;17.07;;;;;;;-1.24;100.00;103482.56;4988828;28;20500;-38
2024/01/08 04:57:53;;;;;;;18.27;17.27;;;;;;;-1.27;100.00;103479.19;4996019;28;20555;-37
2024/01/08 05:00:22;;;;;;;17.90;17.00;;;;;;;-1.20;100.00;103506.88;4991858;28;20438;-38
2024/01/08 05:02:50;;;;;;;19.77;18.87;;;;;;;-1.17;100.00;103502.41;4988385;28;20809;-36
2024/01/08 05:05:18;;;;;;;19.07;18.07;;;;;;;-1.19;100.00;103488.47;4990705;28;20449;-39
2024/01/08 05:07:46;;;;;;;19.20;18.10;;;;;;;-1.20;100.00;103494.66;4989522;28;20458;-37
2024/01/08 05:10:14;;;;;;;19.90;18.90;;;;;;;-1.14;100.00;103499.66;4990378;28;20485;-36
2024/01/08 05:12:43;;;;;;;19.00;18.10;;;;;;;-1.18;100.00;103499.81;4998246;28;20449;-37
2024/01/08 05:15:11;;;;;;;19.93;19.13;;;;;;;-1.18;100.00;103495.44;4990392;28;20433;-36
2024/01/08 05:17:40;;;;;;;20.60;19.50;;;;;;;-1.16;100.00;103511.94;4996443;28;20453;-36
2024/01/08 05:20:10;;;;;;;20.20;19.07;;;;;;;-1.12;100.00;103508.31;5001740;28;20487;-36
2024/01/08 05:22:39;;;;;;;19.63;18.63;;;;;;;-1.13;100.00;103498.75;5001703;28;20805;-37
2024/01/08 05:25:08;;;;;;;18.80;18.10;;;;;;;-1.13;100.00;103513.59;4999184;28;20896;-38
2024/01/08 05:27:36;;;;;;;20.23;19.33;;;;;;;-1.15;100.00;103507.56;5000381;28;20650;-40
2024/01/08 05:30:04;;;;;;;20.23;19.23;;;;;;;-1.11;100.00;103509.19;5001368;28;20993;-37
2024/01/08 05:32:32;;;;;;;20.00;18.70;;;;;;;-1.11;100.00;103520.47;5008885;28;20520;-37
2024/01/08 05:35:02;;;;;;;21.13;20.03;;;;;;;-1.08;100.00;103506.44;5007163;28;20438;-38
2024/01/08 05:37:30;;;;;;;19.60;18.80;;;;;;;-1.12;100.00;103523.16;5004419;28;20463;-37
2024/01/08 05:39:58;;;;;;;19.73;18.83;;;;;;;-1.14;100.00;103514.53;5002753;28;20500;-37
2024/01/08 05:42:25;;;;;;;20.07;19.17;;;;;;;-1.14;100.00;103511.91;5000402;28;20465;-38
2024/01/08 05:44:53;;;;;;;20.20;19.07;;;;;;;-1.15;100.00;103523.28;5013154;28;20436;-37
2024/01/08 05:47:21;;;;;;;20.40;19.30;;;;;;;-1.13;100.00;103511.84;5000587;28;20465;-36
2024/01/08 05:49:49;;;;;;;20.30;19.30;;;;;;;-1.12;100.00;103503.06;5010559;28;20947;-37
2024/01/08 05:52:18;;;;;;;20.73;19.30;;;;;;;-1.20;100.00;103533.91;5006359;28;20469;-36
2024/01/08 05:54:46;;;;;;;20.83;19.60;;;;;;;-1.22;100.00;103520.00;5003746;28;20505;-37
2024/01/08 05:57:14;;;;;;;20.97;19.63;;;;;;;-1.26;100.00;103507.94;5007733;28;20489;-38
2024/01/08 05:59:41;;;;;;;20.80;19.90;;;;;;;-1.20;100.00;103512.13;5010481;28;20456;-40
2024/01/08 06:02:10;;;;;;;21.53;20.50;;;;;;;-1.27;100.00;103508.84;5000970;28;20573;-36
2024/01/08 06:04:38;;;;;;;24.27;22.97;;;;;;;-1.32;100.00;103508.16;5003100;28;20434;-41
2024/01/08 06:07:06;;;;;;;21.50;20.70;;;;;;;-1.32;100.00;103515.16;5002687;28;20867;-37
2024/01/08 06:09:36;;;;;;;20.37;19.47;;;;;;;-1.30;100.00;103511.56;5003517;28;20860;-38
2024/01/08 06:12:04;;;;;;;20.87;19.73;;;;;;;-1.28;100.00;103525.44;5008625;28;20987;-37
2024/01/08 06:14:32;;;;;;;19.60;18.60;;;;;;;-1.32;100.00;103517.78;4992766;28;20461;-37
2024/01/08 06:17:00;;;;;;;20.57;19.50;;;;;;;-1.34;100.00;103525.66;5007879;28;20790;-37
2024/01/08 06:19:28;;;;;;;20.37;19.03;;;;;;;-1.33;100.00;103530.00;5000937;28;20468;-37
2024/01/08 06:21:55;;;;;;;19.63;18.73;;;;;;;-1.34;100.00;103523.03;5013914;28;20491;-37
2024/01/08 06:24:23;;;;;;;20.07;19.17;;;;;;;-1.34;100.00;103530.03;5014802;28;20433;-37
2024/01/08 06:26:52;;;;;;;19.93;18.93;;;;;;;-1.37;100.00;103523.16;4994264;28;20818;-37
2024/01/08 06:29:21;;;;;;;20.03;19.00;;;;;;;-1.37;100.00;103528.38;5012698;28;20472;-36
2024/01/08 06:31:49;;;;;;;20.23;19.23;;;;;;;-1.34;100.00;103522.19;4995474;28;20469;-38
2024/01/08 06:34:17;;;;;;;19.80;18.90;;;;;;;-1.34;100.00;103530.91;4998687;28;20430;-38
2024/01/08 06:36:45;;;;;;;21.03;20.03;;;;;;;-1.37;100.00;103532.75;5009935;28;20832;-36
2024/01/08 06:39:14;;;;;;;20.57;19.47;;;;;;;-1.38;100.00;103533.69;5012288;28;20927;-36
2024/01/08 06:41:43;;;;;;;20.80;19.70;;;;;;;-1.36;100.00;103545.81;5010982;28;20875;-37
2024/01/08 06:44:12;;;;;;;19.90;18.87;;;;;;;-1.34;100.00;103546.59;4995681;28;20433;-37
2024/01/08 06:46:40;;;;;;;21.17;19.73;;;;;;;-1.32;100.00;103552.66;5010544;28;20500;-36
2024/01/08 06:49:08;;;;;;;20.37;19.43;;;;;;;-1.27;100.00;103568.19;4984028;28;20466;-38
2024/01/08 06:51:40;;;;;;;19.93;19.03;;;;;;;-1.24;100.00;103563.72;4999911;28;20469;-38
2024/01/08 06:54:09;;;;;;;19.77;18.63;;;;;;;-1.26;100.00;103562.94;4995950;28;20465;-37
2024/01/08 06:56:38;;;;;;;19.50;18.10;;;;;;;-1.24;100.00;103563.72;5003775;28;20480;-36
2024/01/08 06:59:06;;;;;;;19.43;18.53;;;;;;;-1.18;100.00;103575.75;5012544;28;20461;-36
2024/01/08 07:01:36;;;;;;;19.70;18.40;;;;;;;-1.14;100.00;103569.50;5003876;28;20524;-40
2024/01/08 07:04:04;;;;;;;18.50;17.63;;;;;;;-1.19;100.00;103574.88;5010036;28;20433;-38
2024/01/08 07:06:32;;;;;;;19.80;18.80;;;;;;;-1.12;100.00;103589.50;5004787;28;20579;-36
2024/01/08 07:09:00;;;;;;;19.70;18.50;;;;;;;-1.16;100.00;103593.09;4998917;28;20524;-37
2024/01/08 07:11:28;;;;;;;19.63;18.57;;;;;;;-1.12;100.00;103591.25;4999643;28;20520;-36
2024/01/08 07:13:56;;;;;;;19.97;18.90;;;;;;;-1.12;100.00;103596.50;5010216;28;20441;-36
2024/01/08 07:16:25;;;;;;;18.87;18.07;;;;;;;-1.12;100.00;103594.72;5002413;28;20429;-38
2024/01/08 07:18:55;;;;;;;19.87;18.60;;;;;;;-1.16;100.00;103611.44;4995751;28;20598;-37
2024/01/08 07:21:23;;;;;;;18.70;17.73;;;;;;;-1.14;100.00;103600.94;4998120;28;20445;-37
2024/01/08 07:23:50;;;;;;;18.83;17.73;;;;;;;-1.12;100.00;103607.81;4991833;28;20480;-37
2024/01/08 07:26:18;;;;;;;18.70;17.80;;;;;;;-1.06;100.00;103604.13;5000606;28;21014;-38
2024/01/08 07:28:47;;;;;;;21.23;20.03;;;;;;;-1.04;100.00;103604.94;5005359;28;20461;-38
2024/01/08 07:31:16;;;;;;;20.20;19.27;;;;;;;-1.07;100.00;103610.28;5010754;28;20507;-38
2024/01/08 07:33:44;;;;;;;20.83;19.83;;;;;;;-1.07;100.00;103614.66;5002765;28;20438;-38
2024/01/08 07:36:14;;;;;;;21.23;20.10;;;;;;;-1.05;100.00;103621.56;4990526;28;20442;-36
2024/01/08 07:38:41;;;;;;;20.57;19.60;;;;;;;-1.05;100.00;103621.56;4999293;28;20465;-41
2024/01/08 07:41:09;;;;;;;20.80;19.70;;;;;;;-1.02;100.00;103620.59;5012716;28;20430;-38
2024/01/08 07:43:37;;;;;;;21.37;20.20;;;;;;;-1.02;100.00;103631.09;5000950;28;20433;-39
2024/01/08 07:46:05;;;;;;;21.00;19.60;;;;;;;-0.98;100.00;103637.91;5008776;28;20534;-40
2024/01/08 07:48:33;;;;;;;20.60;19.50;;;;;;;-0.98;100.00;103637.91;5005318;28;20817;-37
2024/01/08 07:51:01;;;;;;;20.80;19.73;;;;;;;-1.08;100.00;103647.88;5002099;28;20821;-40
2024/01/08 07:53:31;;;;;;;20.00;19.07;;;;;;;-1.11;100.00;103682.84;4995753;28;20485;-38
2024/01/08 07:56:00;;;;;;;20.33;19.30;;;;;;;-1.08;100.00;103655.72;5000466;28;20458;-37
2024/01/08 07:58:28;;;;;;;20.77;19.67;;;;;;;-1.04;100.00;103662.53;5002348;28;20464;-38
2024/01/08 08:01:07;;;;;;;20.23;19.13;;;;;;;-1.02;100.00;103658.13;5007429;28;20437;-38
2024/01/08 08:03:36;;;;;;;21.17;20.10;;;;;;;-0.98;100.00;103672.81;4991570;28;20442;-36
2024/01/08 08:06:05;;;;;;;20.60;18.97;;;;;;;-0.99;100.00;103670.28;5008969;28;20468;-39
2024/01/08 08:08:35;;;;;;;19.70;18.80;;;;;;;-0.98;100.00;103672.81;4994211;28;20500;-37
2024/01/08 08:11:05;;;;;;;20.63;19.33;;;;;;;-0.94;100.00;103666.59;5010013;28;20495;-38
2024/01/08 08:13:33;;;;;;;19.43;18.60;;;;;;;-1.02;100.00;103668.63;5009927;28;20612;-38
2024/01/08 08:16:01;;;;;;;18.27;17.43;;;;;;;-0.96;100.00;103667.56;5008260;28;20475;-38
2024/01/08 08:18:28;;;;;;;19.83;18.63;;;;;;;-0.97;100.00;103671.06;5005992;28;20471;-37
2024/01/08 08:20:57;;;;;;;19.40;18.30;;;;;;;-0.99;100.00;103699.94;4999882;28;20433;-40
2024/01/08 08:23:25;;;;;;;18.80;17.97;;;;;;;-0.96;100.00;103691.13;5002503;28;20426;-37
2024/01/08 08:25:54;;;;;;;19.47;18.53;;;;;;;-0.94;100.00;103703.25;5010455;28;20987;-38
2024/01/08 08:28:22;;;;;;;20.03;18.93;;;;;;;-0.91;100.00;103715.41;5008479;28;21055;-37
2024/01/08 08:30:50;;;;;;;20.70;19.60;;;;;;;-0.94;100.00;103708.50;5002367;28;20505;-38
2024/01/08 08:33:18;;;;;;;19.10;17.90;;;;;;;-0.94;100.00;103721.59;5005640;28;20484;-37
2024/01/08 08:35:46;;;;;;;19.57;18.30;;;;;;;-0.91;100.00;103723.25;5006257;28;20464;-38
2024/01/08 08:38:14;;;;;;;18.87;17.90;;;;;;;-0.92;100.00;103717.16;5009244;28;20469;-37
2024/01/08 08:40:43;;;;;;;18.93;17.97;;;;;;;-0.95;100.00;103734.72;4993111;28;20434;-37
2024/01/08 08:43:12;;;;;;;19.47;18.50;;;;;;;-0.98;100.00;103729.59;4989883;28;20999;-38
2024/01/08 08:45:40;;;;;;;19.27;18.27;;;;;;;-0.93;100.00;103733.78;4997238;28;20495;-38
2024/01/08 08:48:09;;;;;;;20.00;18.90;;;;;;;-0.97;100.00;103734.78;5010893;28;20540;-39
2024/01/08 08:50:37;;;;;;;19.13;18.20;;;;;;;-1.01;100.00;103737.53;5008512;28;20499;-37
2024/01/08 08:53:05;;;;;;;19.03;18.13;;;;;;;-0.92;100.00;103734.63;5006339;28;20469;-39
2024/01/08 08:55:33;;;;;;;20.00;18.90;;;;;;;-0.89;100.00;103735.38;5004261;28;20790;-41
2024/01/08 08:58:00;;;;;;;20.00;18.97;;;;;;;-0.81;100.00;103743.00;5011238;28;20465;-37
2024/01/08 09:00:29;;;;;;;20.20;19.10;;;;;;;-0.77;100.00;103737.59;5008701;28;20439;-37
2024/01/08 09:02:59;;;;;;;20.00;19.00;;;;;;;-0.73;100.00;103756.72;5003640;28;20438;-38
2024/01/08 09:05:27;;;;;;;20.37;19.17;;;;;;;-0.69;100.00;103745.22;5000629;28;20437;-39
2024/01/08 09:08:06;;;;;;;19.10;18.20;;;;;;;-0.69;100.00;103743.44;5000196;28;20683;-39
2024/01/08 09:10:35;;;;;;;20.70;19.67;;;;;;;-0.70;100.00;103743.50;4994564;28;20513;-37
2024/01/08 09:13:03;;;;;;;20.10;19.20;;;;;;;-0.66;100.00;103745.97;4997670;28;20569;-38
2024/01/08 09:15:32;;;;;;;20.37;19.37;;;;;;;-0.63;100.00;103751.09;5002351;28;20430;-39
2024/01/08 09:18:00;;;;;;;19.47;18.53;;;;;;;-0.61;100.00;103748.44;5007274;28;20469;-36
2024/01/08 09:20:29;;;;;;;21.47;20.00;;;;;;;-0.59;100.00;103757.97;5002253;28;20433;-37
2024/01/08 09:22:57;;;;;;;21.87;20.27;;;;;;;-0.61;100.00;103754.56;5008979;28;21056;-39
2024/01/08 09:25:25;;;;;;;20.23;19.23;;;;;;;-0.70;100.00;103762.72;4998493;28;20466;-39
2024/01/08 09:27:53;;;;;;;21.37;20.10;;;;;;;-0.59;100.00;103757.97;5004438;28;20476;-38
2024/01/08 09:30:21;;;;;;;20.77;19.97;;;;;;;-0.53;100.00;103756.91;5010835;28;20471;-38
2024/01/08 09:32:50;;;;;;;20.03;19.00;;;;;;;-0.50;100.00;103774.28;5007067;28;20482;-36
2024/01/08 09:35:19;;;;;;;19.57;18.60;;;;;;;-0.46;100.00;103757.56;4985770;28;20487;-37
2024/01/08 09:37:48;;;;;;;20.63;19.50;;;;;;;-0.55;100.00;103777.06;5009718;28;20461;-36
2024/01/08 09:40:16;;;;;;;21.73;20.70;;;;;;;-0.47;100.00;103774.19;4996065;28;20999;-37
2024/01/08 09:42:45;;;;;;;20.67;19.30;;;;;;;-0.48;100.00;103765.50;5007140;28;20460;-38
2024/01/08 09:45:13;;;;;;;20.60;19.60;;;;;;;-0.37;100.00;103767.72;5007989;28;20441;-39
2024/01/08 09:47:42;;;;;;;21.33;19.90;;;;;;;-0.41;100.00;103761.72;5000169;28;20533;-37
2024/01/08 09:50:14;;;;;;;21.13;19.67;;;;;;;-0.30;100.00;103766.63;5005470;28;20469;-36
2024/01/08 09:52:43;;;;;;;20.30;19.40;;;;;;;-0.28;100.00;103773.50;5002885;28;20507;-37
2024/01/08 09:55:13;;;;;;;20.67;19.67;;;;;;;-0.28;100.00;103760.41;4992709;28;20439;-36
2024/01/08 09:57:41;;;;;;;20.20;19.30;;;;;;;-0.20;100.00;103774.09;5010106;28;20453;-38
2024/01/08 10:00:11;;;;;;;20.40;19.50;;;;;;;-0.15;100.00;103763.47;4997903;28;21182;-36
2024/01/08 10:02:39;;;;;;;21.10;19.77;;;;;;;-0.17;100.00;103760.00;5000341;28;20440;-39
2024/01/08 10:05:08;;;;;;;21.27;20.20;;;;;;;-0.13;100.00;103764.25;4991298;28;20426;-37
2024/01/08 10:07:38;;;;;;;20.10;19.20;;;;;;;-0.24;100.00;103758.53;4988052;28;20533;-38
2024/01/08 10:10:06;;;;;;;19.37;18.30;;;;;;;-0.26;100.00;103760.34;4997395;28;20469;-41
2024/01/08 10:12:35;;;;;;;20.00;18.80;;;;;;;-0.10;100.00;103758.91;5002045;28;20501;-40
2024/01/08 10:15:03;;;;;;;21.37;20.37;;;;;;;-0.01;100.00;103750.69;4991451;28;20442;-37
2024/01/08 10:17:31;;;;;;;20.20;19.20;;;;;;;-0.03;100.00;103765.66;5005684;28;20462;-39
2024/01/08 10:20:07;;;;;;;21.37;20.27;;;;;;;-0.21;100.00;103767.13;4988893;28;20921;-37
2024/01/08 10:22:35;;;;;;;21.47;20.47;;;;;;;-0.10;100.00;103761.53;5005970;28;20430;-37
2024/01/08 10:25:06;;;;;;;20.93;19.73;;;;;;;-0.13;100.00;103759.88;5010666;28;20479;-38
2024/01/08 10:27:34;;;;;;;21.30;20.10;;;;;;;-0.17;100.00;103765.25;4996123;28;20459;-38
2024/01/08 10:30:02;;;;;;;21.60;20.50;;;;;;;-0.04;100.00;103761.31;5003451;28;20431;-38
2024/01/08 10:32:31;;;;;;;19.97;19.13;;;;;;;-0.09;100.00;103758.00;5014551;28;20433;-37
2024/01/08 10:35:02;;;;;;;20.70;19.63;;;;;;;-0.20;100.00;103755.75;5002143;28;21073;-37
2024/01/08 10:37:30;;;;;;;21.03;19.93;;;;;;;-0.12;100.00;103758.94;5009713;28;20820;-37
2024/01/08 10:40:01;;;;;;;20.33;19.53;;;;;;;-0.17;100.00;103760.88;5011746;28;20444;-38
2024/01/08 10:42:30;;;;;;;20.30;19.30;;;;;;;-0.27;100.00;103754.22;5010992;28;20578;-43
2024/01/08 10:44:58;;;;;;;22.60;21.30;;;;;;;-0.24;100.00;103759.38;5013028;28;21022;-38
2024/01/08 10:47:27;;;;;;;20.60;19.50;;;;;;;-0.36;100.00;103761.59;5003508;28;20511;-37
2024/01/08 10:49:58;;;;;;;20.40;19.47;;;;;;;-0.30;100.00;103764.00;5003262;28;20905;-37
2024/01/08 10:52:29;;;;;;;20.63;19.63;;;;;;;-0.32;100.00;103786.78;4992033;28;20439;-39
2024/01/08 10:55:02;;;;;;;21.07;19.97;;;;;;;-0.28;100.00;103762.16;4999681;28;20785;-38
2024/01/08 10:57:38;;;;;;;21.20;20.20;;;;;;;-0.40;100.00;103765.22;5008766;28;20977;-37
2024/01/08 11:00:09;;;;;;;20.97;19.80;;;;;;;-0.32;100.00;103766.66;4996966;28;20436;-38
2024/01/08 11:02:38;;;;;;;21.60;20.40;;;;;;;-0.35;100.00;103755.41;4984843;28;20442;-37
2024/01/08 11:05:08;;;;;;;21.10;20.00;;;;;;;-0.31;100.00;103760.50;5001664;28;20434;-37
2024/01/08 11:07:38;;;;;;;21.40;20.10;;;;;;;-0.40;100.00;103768.69;5012704;28;20457;-36